Tiempo atmosférico en la estación meteorológica de Láujar De Andarax, Almería (1510 m.)



Fecha
DESCASC
Temp. máxima en grados centígrados (hora)
DESCASC
Temp. mínima en grados centígrados (hora)
DESCASC
Temp. media en grados centígrados
DESCASC
Racha de viento máxima en m/sg (hora)
DESCASC
Velocidad máxima media en intervalos de 10 minutos(hora)
DESCASC
Precipitaciones diarias en mm
DESCASC
Precipitaciones de 00:00 a 06:00 en mm
DESCASC
Precipitaciones de 06:00 a 12:00 en mm
DESCASC
Precipitaciones de 12:00 a 18:00 en mm
DESCASC
Precipitaciones de 18:00 a 24:00 en mm
DESCASC
31-05-2020 22 (15:50) 12.5 (20:10) 17.3 10.56 (14:40) 5.83 (19:40) 3.4 0 0 0 3.4
30-05-2020 22.5 (14:40) 12.4 (00:40) 17.4 8.33 (16:40) 4.17 (14:00) 0 0 0 0 0
29-05-2020 22.5 (17:40) 11.5 (00:20) 17 8.89 (02:30) 4.17 (15:10) 0 0 0 0 0
28-05-2020 21.4 (17:00) 11 (00:00) 16.2 13.61 (09:00) 6.94 (09:00) 0 0 0 0 0
27-05-2020 21 (17:40) 10.8 (00:00) 15.9 14.44 (12:40) 6.39 (08:10) 0 0 0 0 0
26-05-2020 22.5 (16:30) 12.8 (00:00) 17.7 8.89 (13:50) 4.44 (00:30) 0 0 0 0 0
25-05-2020 22.7 (16:40) 13.1 (00:00) 17.9 7.5 (14:50) 4.44 (13:10) 0 0 0 0 0
24-05-2020 23.6 (15:20) 14.3 (00:00) 19 8.06 (13:50) 5 (08:00) 0 0 0 0 0
23-05-2020 25.1 (14:30) 16 (00:00) 20.6 8.61 (14:10) 5.28 (14:10) 0 0 0 0 0
22-05-2020 26.1 (13:50) 17.1 (00:00) 21.6 8.89 (15:10) 6.39 (15:20) 0 0 0 0 0
21-05-2020 24.8 (16:10) 16.5 (00:00) 20.6 11.11 (16:10) 7.22 (16:40) 0 0 0 0 0
20-05-2020 23.6 (17:00) 14 (00:00) 18.8 12.78 (16:10) 8.89 (17:20) 0 0 0 0 0
19-05-2020 21.7 (17:00) 12.7 (00:00) 17.2 12.5 (16:00) 8.61 (17:30) 0 0 0 0 0
18-05-2020 18.8 (16:30) 7.9 (00:00) 13.3 13.06 (16:00) 8.61 (16:20) 0 0 0 0 0
17-05-2020 12.9 (20:10) 6.5 (00:00) 9.7 11.67 (14:40) 8.06 (14:50) 1 0 0 1 0
16-05-2020 10 (16:30) 5.4 (00:00) 7.7 5.28 (18:00) 3.33 (19:00) 9 0 0 7.8 1.2
15-05-2020 12.1 (12:20) 4.9 (00:00) 8.5 8.33 (12:10) 3.89 (12:10) 5 0 0 0.6 4.4
14-05-2020 11.4 (17:00) 3.7 (00:00) 7.5 17.78 (13:10) 12.78 (12:40) 2.2 2.2 0 0 0
13-05-2020 15.5 (16:40) 3.5 (00:00) 9.5 15.28 (17:50) 10.28 (17:50) 0.2 0 0 0 0.2
12-05-2020 11.4 (00:00) 3.8 (00:00) 7.6 15.28 (19:50) 10.56 (19:30) 9.4 0 1 8.4 0
11-05-2020 17.2 (17:10) 5.6 (00:00) 11.4 12.78 (13:10) 8.89 (15:30) 0 0 0 0 0
10-05-2020 14.3 (16:00) 6 (00:00) 10.2 16.11 (17:30) 10 (17:40) 0.2 0 0 0 0.2
09-05-2020 19.8 (18:10) 9.3 (00:00) 14.5 11.39 (16:00) 7.5 (18:20) 0 0 0 0 0
08-05-2020 23.1 (17:30) 10.5 (00:00) 16.8 7.22 (14:00) 4.72 (23:50) 0 0 0 0 0
07-05-2020 19.9 (15:30) 11 (00:00) 15.4 11.94 (15:20) 4.72 (19:10) 0 0 0 0 0
06-05-2020 24.6 (16:30) 13.6 (00:00) 19.1 8.06 (14:10) 5.28 (14:10) 0 0 0 0 0
05-05-2020 25.6 (18:20) 16.3 (00:00) 20.9 10.28 (17:00) 6.39 (16:30) 0 0 0 0 0

Gráficas

Temp. máximas Temp. mínimas Temp. medias Precipitaciones Rachas de viento máximas Velocidades máximas media en intervalos de 10 minutos

Datos horarios

Fecha y hora oficial Temperatura (ºC) Velocidad del viento (km/h) Dirección del viento Racha (km/h) Dirección de racha Precipitación (mm) Presión (hPa) Tendencia (hPa) Humedad (%)
2020-06-03 23:00:00 15.3 10 Nordeste 36 Noroeste 0 -- -- 53
2020-06-03 22:00:00 16.1 21 Noroeste 32 Noroeste 0 -- -- 49
2020-06-03 21:00:00 20.3 27 Noroeste 35 Noroeste 0 -- -- 35
2020-06-03 20:00:00 23.9 21 Noroeste 28 Noroeste 0 -- -- 31
2020-06-03 19:00:00 24.7 21 Noroeste 36 Noroeste 0 -- -- 30
2020-06-03 18:00:00 23.9 19 Noroeste 42 Noroeste 0 -- -- 33
2020-06-03 17:00:00 24.2 25 Noroeste 47 Noroeste 0 -- -- 33
2020-06-03 16:00:00 24.6 30 Noroeste 46 Noroeste 0 -- -- 32
2020-06-03 15:00:00 24.1 29 Noroeste 40 Noroeste 0 -- -- 29
2020-06-03 14:00:00 23.8 23 Noroeste 37 Noroeste 0 -- -- 28
2020-06-03 13:00:00 21.9 23 Noroeste 38 Noroeste 0 -- -- 28
2020-06-03 12:00:00 20.7 18 Noroeste 31 Noroeste 0 -- -- 30
2020-06-03 11:00:00 19.2 19 Noroeste 28 Noroeste 0 -- -- 34
2020-06-03 10:00:00 18.9 14 Noroeste 22 Norte 0 -- -- 38
2020-06-03 09:00:00 17 11 Noroeste 15 Noroeste 0 -- -- 36
2020-06-03 08:00:00 13.4 7 Noroeste 18 Norte 0 -- -- 44
2020-06-03 07:00:00 13.5 11 Norte 19 Norte 0 -- -- 39
2020-06-03 06:00:00 13.6 10 Norte 13 Norte 0 -- -- 42
2020-06-03 05:00:00 14.2 6 Noroeste 13 Norte 0 -- -- 38
2020-06-03 04:00:00 15 9 Norte 17 Norte 0 -- -- 32
2020-06-03 03:00:00 16.3 14 Norte 18 Norte 0 -- -- 25
2020-06-03 02:00:00 16 13 Norte 18 Norte 0 -- -- 35
2020-06-03 01:00:00 15.9 7 Norte 14 Norte 0 -- -- 35
2020-06-03 00:00:00 16.2 4 Noroeste 5 Este 0 -- -- 50
2020-06-02 23:00:00 16.2 3 Norte 5 Este 0 -- -- 48
2020-06-02 22:00:00 16.7 0 Calma 9 Este 0 -- -- 49
2020-06-02 21:00:00 20 5 Norte 19 Noroeste 0 -- -- 44
2020-06-02 20:00:00 22.9 16 Noroeste 24 Noroeste 0 -- -- 38
2020-06-02 19:00:00 22.4 17 Noroeste 23 Noroeste 0 -- -- 38
2020-06-02 18:00:00 21.7 15 Noroeste 23 Noroeste 0 -- -- 39
2020-06-02 17:00:00 22.6 14 Noroeste 22 Noroeste 0 -- -- 37
2020-06-02 16:00:00 21.8 12 Oeste 21 Oeste 0 -- -- 42
2020-06-02 15:00:00 21.4 13 Noroeste 23 Noroeste 0 -- -- 49
2020-06-02 14:00:00 23.3 14 Noroeste 25 Noroeste 0 -- -- 42
2020-06-02 13:00:00 23 13 Oeste 23 Oeste 0 -- -- 30
2020-06-02 12:00:00 22.7 13 Noroeste 27 Oeste 0 -- -- 29
2020-06-02 11:00:00 21.6 11 Noroeste 22 Noroeste 0 -- -- 27
2020-06-02 10:00:00 20.5 10 Noroeste 17 Noroeste 0 -- -- 33
2020-06-02 09:00:00 16.9 9 Norte 18 Norte 0 -- -- 35
2020-06-02 08:00:00 15.2 12 Norte 18 Norte 0 -- -- 48
2020-06-02 07:00:00 14.8 12 Norte 16 Nordeste 0 -- -- 46
2020-06-02 06:00:00 14.7 6 Este 9 Este 0 -- -- 44
2020-06-02 05:00:00 14.3 4 Norte 9 Este 0 -- -- 47
2020-06-02 04:00:00 13.9 5 Sudeste 6 Sudeste 0 -- -- 47
2020-06-02 03:00:00 14.3 0 Calma 8 Sudeste 0 -- -- 50
2020-06-02 02:00:00 14.4 7 Sudeste 10 Sudeste 0 -- -- 46
2020-06-02 01:00:00 14.6 6 Sudeste 10 Sudeste 0 -- -- 51
2020-06-02 00:00:00 14.1 9 Sudeste 13 Sudeste 0 -- -- 57
2020-06-01 23:00:00 14.4 5 Noroeste 10 Sudeste 0 -- -- 62
2020-06-01 22:00:00 15.2 8 Sudeste 11 Sudeste 0 -- -- 55
2020-06-01 21:00:00 18.3 4 Norte 13 Sudoeste 0 -- -- 44
2020-06-01 20:00:00 19.8 9 Sudoeste 17 Noroeste 0 -- -- 40
2020-06-01 19:00:00 21.4 11 Oeste 22 Noroeste 0 -- -- 39
2020-06-01 18:00:00 21.8 11 Oeste 25 Noroeste 0 -- -- 38
2020-06-01 17:00:00 21.3 16 Noroeste 33 Noroeste 0 -- -- 39
2020-06-01 16:00:00 22.5 20 Noroeste 38 Noroeste 0 -- -- 32
2020-06-01 15:00:00 22.3 19 Noroeste 36 Noroeste 0 -- -- 32
2020-06-01 14:00:00 22 19 Noroeste 34 Noroeste 0 -- -- 32
2020-06-01 13:00:00 21.7 17 Noroeste 29 Noroeste 0 -- -- 28
2020-06-01 12:00:00 19.3 11 Oeste 20 Oeste 0 -- -- 31
2020-06-01 11:00:00 18.6 7 Oeste 13 Oeste 0 -- -- 38
2020-06-01 10:00:00 16.9 6 Oeste 11 Sudoeste 0 -- -- 41
2020-06-01 09:00:00 17.1 4 Sudeste 10 Sudeste 0 -- -- 33
2020-06-01 08:00:00 14.9 5 Sudeste 11 Este 0 -- -- 40
2020-06-01 07:00:00 13.6 8 Este 12 Este 0 -- -- 40
2020-06-01 06:00:00 13.2 7 Sudeste 12 Sudeste 0 -- -- 38
2020-06-01 05:00:00 13.1 8 Sudeste 13 Este 0 -- -- 36
2020-06-01 04:00:00 14.3 7 Sudeste 12 Sudeste 0 -- -- 33
2020-06-01 03:00:00 14.5 6 Este 12 Sudeste 0 -- -- 36
2020-06-01 02:00:00 14.3 5 Sudeste 10 Sudeste 0 -- -- 37
2020-06-01 01:00:00 14.7 7 Este 15 Este 0 -- -- 36
2020-06-01 00:00:00 14.5 7 Este 12 Sudeste 0 -- -- 32
2020-05-31 23:00:00 13.9 3 Este 9 Nordeste 0 -- -- 42
2020-05-31 22:00:00 13.2 4 Noroeste 17 Sur 0 -- -- 59
2020-05-31 21:00:00 13.9 9 Sur 32 Sudeste 0 -- -- 60
2020-05-31 20:00:00 -- -- -- -- -- 3.4 -- -- --
2020-05-31 19:00:00 16.9 12 Noroeste 24 Oeste 0 -- -- 46
2020-05-31 18:00:00 19.8 9 Sudoeste 21 Sudoeste 0 -- -- 30
2020-05-31 17:00:00 20.5 5 Noroeste 20 Sudoeste 0 -- -- 35
2020-05-31 16:00:00 21.8 9 Sur 26 Sur 0 -- -- 24
2020-05-31 15:00:00 21.2 13 Sur 38 Sur 0 -- -- 30
2020-05-31 14:00:00 18.6 7 Sudeste 19 Sudeste 0 -- -- 32
2020-05-31 13:00:00 19.5 8 Sudeste 22 Sudeste 0 -- -- 30
2020-05-31 12:00:00 18.7 9 Sudeste 22 Sudeste 0 -- -- 32
2020-05-31 11:00:00 18.5 9 Sur 22 Sudeste 0 -- -- 32
2020-05-31 10:00:00 19.2 8 Sudeste 15 Sudeste 0 -- -- 29
2020-05-31 09:00:00 17.6 7 Sur 15 Este 0 -- -- 30
2020-05-31 08:00:00 15.2 8 Sudeste 17 Este 0 -- -- 29
2020-05-31 07:00:00 14.2 4 Sudeste 21 Sudeste 0 -- -- 28
2020-05-31 06:00:00 14.8 10 Sudeste 24 Este 0 -- -- 28
2020-05-31 05:00:00 13.7 10 Sudeste 20 Sudeste 0 -- -- 30
2020-05-31 04:00:00 13.8 6 Sudeste 21 Sudeste 0 -- -- 28
2020-05-31 03:00:00 13.8 6 Sudeste 18 Sudeste 0 -- -- 26
2020-05-31 02:00:00 14.6 8 Sudeste 19 Este 0 -- -- 35
2020-05-31 01:00:00 14.5 6 Este 16 Sudeste 0 -- -- 37
2020-05-31 00:00:00 14.1 6 Sudeste 16 Sudeste 0 -- -- 41
2020-05-30 23:00:00 13.6 8 Sudeste 18 Sur 0 -- -- 43
2020-05-30 22:00:00 14.1 4 Sudeste 12 Sur 0 -- -- 41
2020-05-30 21:00:00 18 4 Sudeste 14 Sur 0 -- -- 39
2020-05-30 20:00:00 20.8 6 Sur 20 Sudeste 0 -- -- 31
2020-05-30 19:00:00 21.4 8 Sur 22 Sur 0 -- -- 28
2020-05-30 18:00:00 21.4 13 Sur 25 Sudeste 0 -- -- 28
2020-05-30 17:00:00 21.8 13 Sur 30 Sur 0 -- -- 27
2020-05-30 16:00:00 22.4 11 Sur 26 Sudoeste 0 -- -- 26
2020-05-30 15:00:00 22 13 Sur 30 Sur 0 -- -- 20
2020-05-30 14:00:00 21.2 15 Sur 30 Sur 0 -- -- 17
2020-05-30 13:00:00 21.4 12 Sur 24 Sur 0 -- -- 18
2020-05-30 12:00:00 20.2 10 Sur 24 Sur 0 -- -- 21
2020-05-30 11:00:00 18.9 9 Sur 24 Sur 0 -- -- 22
2020-05-30 10:00:00 17.2 11 Sur 20 Sudeste 0 -- -- 23
2020-05-30 09:00:00 16.4 8 Sur 23 Sudeste 0 -- -- 35
2020-05-30 08:00:00 13.7 10 Sudeste 22 Sur 0 -- -- 39
2020-05-30 07:00:00 13 5 Sudeste 15 Sudeste 0 -- -- 34
2020-05-30 06:00:00 13.2 5 Sudeste 15 Sur 0 -- -- 33
2020-05-30 05:00:00 13.6 5 Sudeste 15 Sudeste 0 -- -- 29
2020-05-30 04:00:00 13.7 5 Sur 20 Sur 0 -- -- 29
2020-05-30 03:00:00 13.3 6 Sudeste 21 Sur 0 -- -- 38
2020-05-30 02:00:00 13.4 6 Sudeste 23 Sur 0 -- -- 37
2020-05-30 01:00:00 12.8 6 Sudeste 20 Sudeste 0 -- -- 46
2020-05-30 00:00:00 13.1 7 Sudeste 24 Sur 0 -- -- 55
2020-05-29 23:00:00 13.7 8 Sudeste 17 Sudeste 0 -- -- 49
2020-05-29 22:00:00 14.6 4 Sudeste 6 Sudeste 0 -- -- 43
2020-05-29 21:00:00 17.9 2 Nordeste 15 Sur 0 -- -- 35
2020-05-29 20:00:00 20.3 7 Sudoeste 17 Sudoeste 0 -- -- 33
2020-05-29 19:00:00 20.9 11 Sudoeste 18 Sur 0 -- -- 30
2020-05-29 18:00:00 21.9 11 Sudoeste 23 Sudoeste 0 -- -- 29
2020-05-29 17:00:00 22.4 9 Sudoeste 22 Oeste 0 -- -- 29
2020-05-29 16:00:00 21.2 11 Oeste 28 Oeste 0 -- -- 33
2020-05-29 15:00:00 21.8 13 Sudoeste 23 Oeste 0 -- -- 29
2020-05-29 14:00:00 20.8 10 Sur 27 Sur 0 -- -- 30
2020-05-29 13:00:00 19.7 13 Sur 24 Sur 0 -- -- 32
2020-05-29 12:00:00 18.9 12 Sur 23 Sur 0 -- -- 31
2020-05-29 11:00:00 17.2 12 Sur 25 Sur 0 -- -- 32
2020-05-29 10:00:00 16.2 10 Sur 25 Sur 0 -- -- 34
2020-05-29 09:00:00 15.1 9 Sur 18 Sudeste 0 -- -- 37
2020-05-29 08:00:00 12.6 6 Sudeste 21 Sudeste 0 -- -- 46
2020-05-29 07:00:00 12.7 9 Sudeste 26 Sudeste 0 -- -- 43
2020-05-29 06:00:00 12.7 9 Sudeste 26 Sur 0 -- -- 42
2020-05-29 05:00:00 13 10 Sudeste 26 Sur 0 -- -- 40
2020-05-29 04:00:00 13.3 9 Sudeste 25 Sudeste 0 -- -- 38
2020-05-29 03:00:00 13.3 13 Sudeste 32 Sur 0 -- -- 37
2020-05-29 02:00:00 13.1 14 Sudeste 30 Sur 0 -- -- 40
2020-05-29 01:00:00 12 10 Sudeste 25 Sudeste 0 -- -- 45
2020-05-29 00:00:00 11.7 13 Sur 30 Sur 0 -- -- 50
2020-05-28 23:00:00 11.9 9 Sur 19 Sur 0 -- -- 54
2020-05-28 22:00:00 13.4 8 Sudeste 29 Sudeste 0 -- -- 47
2020-05-28 21:00:00 15.1 9 Sur 18 Sur 0 -- -- 46
2020-05-28 20:00:00 18.6 8 Sur 23 Sudeste 0 -- -- 39
2020-05-28 19:00:00 20.3 8 Sur 24 Sur 0 -- -- 37
2020-05-28 18:00:00 21.1 11 Sur 28 Sur 0 -- -- 37
2020-05-28 17:00:00 21.4 11 Sur 26 Sudeste 0 -- -- 35
2020-05-28 16:00:00 20.7 10 Sur 32 Sur 0 -- -- 36
2020-05-28 15:00:00 20.3 10 Sur 33 Sur 0 -- -- 35
2020-05-28 14:00:00 19.5 13 Sur 30 Sudeste 0 -- -- 36
2020-05-28 13:00:00 17.6 15 Sudeste 36 Sur 0 -- -- 38
2020-05-28 12:00:00 18.6 19 Sur 38 Sur 0 -- -- 34
2020-05-28 11:00:00 17 16 Sudeste 41 Sur 0 -- -- 39
2020-05-28 10:00:00 15.1 22 Sudeste 41 Sur 0 -- -- 43
2020-05-28 09:00:00 13.5 25 Sudeste 49 Sur 0 -- -- 46
2020-05-28 08:00:00 12.2 21 Sur 41 Sur 0 -- -- 42
2020-05-28 07:00:00 11.7 22 Sur 35 Sudeste 0 -- -- 42
2020-05-28 06:00:00 11.8 17 Sur 39 Sudeste 0 -- -- 40
2020-05-28 05:00:00 12.2 11 Sudeste 27 Sudeste 0 -- -- 34
2020-05-28 04:00:00 13.1 9 Sudeste 21 Sur 0 -- -- 35
2020-05-28 03:00:00 11.2 13 Sudeste 24 Sur 0 -- -- 58
2020-05-28 02:00:00 13.1 12 Sudeste 23 Sudeste 0 -- -- 32
2020-05-28 01:00:00 12.5 11 Sudeste 27 Sudeste 0 -- -- 42
2020-05-28 00:00:00 11.8 12 Sudeste 23 Sur 0 -- -- 70
2020-05-27 23:00:00 12.8 10 Sudeste 22 Sur 0 -- -- 53
2020-05-27 22:00:00 13.7 10 Sudeste 25 Sudeste 0 -- -- 51
2020-05-27 21:00:00 15.1 14 Sur 27 Sudeste 0 -- -- 55
2020-05-27 20:00:00 18.2 12 Sudeste 31 Sur 0 -- -- 47
2020-05-27 19:00:00 19.7 13 Sur 28 Sur 0 -- -- 46
2020-05-27 18:00:00 20.9 9 Sur 28 Sur 0 -- -- 40
2020-05-27 17:00:00 20.3 13 Sur 32 Sudeste 0 -- -- 38
2020-05-27 16:00:00 20.1 16 Sur 37 Sur 0 -- -- 36
2020-05-27 15:00:00 19.7 17 Sur 40 Sur 0 -- -- 38
2020-05-27 14:00:00 19.6 19 Sur 46 Sur 0 -- -- 38
2020-05-27 13:00:00 19.4 14 Sur 52 Sudeste 0 -- -- 38
2020-05-27 12:00:00 17.9 15 Sudeste 39 Sur 0 -- -- 35
2020-05-27 11:00:00 17.3 16 Sur 35 Sur 0 -- -- 42
2020-05-27 10:00:00 16.3 15 Sur 31 Sur 0 -- -- 46
2020-05-27 09:00:00 14.9 18 Sur 39 Sudeste 0 -- -- 42
2020-05-27 08:00:00 13 18 Sur 36 Sudeste 0 -- -- 48
2020-05-27 07:00:00 11.7 14 Sudeste 25 Sudeste 0 -- -- 47
2020-05-27 06:00:00 11.6 10 Sudeste 19 Sur 0 -- -- 47
2020-05-27 05:00:00 13.7 9 Sudeste 21 Este 0 -- -- 48
2020-05-27 04:00:00 14.2 10 Sudeste 23 Sur 0 -- -- 53
2020-05-27 03:00:00 13.6 11 Sudeste 24 Sudeste 0 -- -- 56
2020-05-27 02:00:00 12.3 11 Sudeste 27 Sudeste 0 -- -- 71
2020-05-27 01:00:00 12.1 11 Sur 20 Este 0 -- -- 81
2020-05-27 00:00:00 12.8 8 Sur 18 Sudeste 0 -- -- 71
2020-05-26 23:00:00 13.1 11 Sudeste 22 Sudeste 0 -- -- 65
2020-05-26 22:00:00 13.7 8 Sur 18 Sur 0 -- -- 72
2020-05-26 21:00:00 15.7 9 Sur 21 Sur 0 -- -- 57
2020-05-26 20:00:00 19.2 10 Sur 20 Sudeste 0 -- -- 51
2020-05-26 19:00:00 21.1 8 Sur 19 Sur 0 -- -- 43
2020-05-26 18:00:00 22 9 Sur 23 Sur 0 -- -- 35
2020-05-26 17:00:00 22.3 12 Sur 26 Sur 0 -- -- 33
2020-05-26 16:00:00 22.1 13 Sur 27 Sudeste 0 -- -- 31
2020-05-26 15:00:00 22.4 12 Sur 28 Sur 0 -- -- 31
2020-05-26 14:00:00 21.6 11 Sur 32 Sur 0 -- -- 32
2020-05-26 13:00:00 21.4 10 Sur 23 Sur 0 -- -- 29
2020-05-26 12:00:00 20 10 Sur 22 Sur 0 -- -- 30
2020-05-26 11:00:00 19 9 Sur 18 Sudeste 0 -- -- 30
2020-05-26 10:00:00 15.9 7 Sudeste 18 Sur 0 -- -- 40
2020-05-26 09:00:00 15.2 7 Sudeste 20 Sur 0 -- -- 38
2020-05-26 08:00:00 14.1 8 Sudeste 22 Sur 0 -- -- 24
2020-05-26 07:00:00 13.8 8 Sudeste 17 Sudeste 0 -- -- 17
2020-05-26 06:00:00 14.7 9 Sudeste 18 Sudeste 0 -- -- 16
2020-05-26 05:00:00 13.3 9 Sudeste 26 Sur 0 -- -- 21
2020-05-26 04:00:00 14.3 10 Sudeste 22 Sur 0 -- -- 19
2020-05-26 03:00:00 14.2 6 Sudeste 22 Sur 0 -- -- 21
2020-05-26 02:00:00 15.9 10 Sudeste 25 Sur 0 -- -- 17
2020-05-26 01:00:00 16 11 Sudeste 26 Sudeste 0 -- -- 18
2020-05-26 00:00:00 14 6 Sudeste 17 Sur 0 -- -- 44
2020-05-25 23:00:00 13.8 5 Este 15 Sur 0 -- -- 45
2020-05-25 22:00:00 13.8 10 Sudeste 17 Sur 0 -- -- 55
2020-05-25 21:00:00 16.7 3 Sudeste 11 Sur 0 -- -- 46
2020-05-25 20:00:00 19.1 5 Sudoeste 12 Sur 0 -- -- 39
2020-05-25 19:00:00 20.8 5 Sudoeste 18 Sudoeste 0 -- -- 31
2020-05-25 18:00:00 21.6 9 Sudoeste 23 Sur 0 -- -- 30
2020-05-25 17:00:00 22.2 12 Sudoeste 25 Noroeste 0 -- -- 31
2020-05-25 16:00:00 21.9 9 Sudoeste 27 Sudoeste 0 -- -- 30
2020-05-25 15:00:00 22.1 12 Sudoeste 27 Sur 0 -- -- 30
2020-05-25 14:00:00 21.8 12 Sur 24 Sudoeste 0 -- -- 28
2020-05-25 13:00:00 21.2 10 Sudoeste 22 Oeste 0 -- -- 28
2020-05-25 12:00:00 20.5 10 Sudoeste 19 Sur 0 -- -- 23
2020-05-25 11:00:00 21 8 Sur 19 Sudeste 0 -- -- 14
2020-05-25 10:00:00 19.6 4 Sur 18 Sur 0 -- -- 19
2020-05-25 09:00:00 18.2 6 Sur 17 Sur 0 -- -- 20
2020-05-25 08:00:00 14.9 11 Sudeste 20 Sudeste 0 -- -- 22
2020-05-25 07:00:00 15.6 9 Sudeste 17 Sudeste 0 -- -- 23
2020-05-25 06:00:00 17.2 8 Sudeste 15 Sudeste 0 -- -- 20
2020-05-25 05:00:00 15.9 10 Sudeste 15 Este 0 -- -- 37
2020-05-25 04:00:00 15 9 Sudeste 14 Sudeste 0 -- -- 30
2020-05-25 03:00:00 14.1 6 Sudeste 14 Sur 0 -- -- 28
2020-05-25 02:00:00 14.5 5 Sur 12 Sur 0 -- -- 39
2020-05-25 01:00:00 14.7 4 Sur 12 Sur 0 -- -- 36
2020-05-25 00:00:00 15.3 5 Sudeste 13 Sudeste 0 -- -- 43
2020-05-24 23:00:00 14.3 9 Sudeste 15 Sur 0 -- -- 50
2020-05-24 22:00:00 15.4 11 Sudeste 18 Sur 0 -- -- 37
2020-05-24 21:00:00 18.3 4 Sur 8 Sudoeste 0 -- -- 44
2020-05-24 20:00:00 20.7 5 Sudoeste 17 Sudoeste 0 -- -- 37
2020-05-24 19:00:00 21.3 8 Sudoeste 25 Sudoeste 0 -- -- 36
2020-05-24 18:00:00 21.9 15 Sudoeste 25 Sudoeste 0 -- -- 33
2020-05-24 17:00:00 23.1 12 Sur 25 Sur 0 -- -- 28
2020-05-24 16:00:00 23.1 13 Sur 26 Sudoeste 0 -- -- 28
2020-05-24 15:00:00 22.4 11 Sur 24 Sur 0 -- -- 25
2020-05-24 14:00:00 22.4 14 Sur 29 Sudoeste 0 -- -- 26
2020-05-24 13:00:00 21.9 14 Sur 28 Sur 0 -- -- 22
2020-05-24 12:00:00 20.6 12 Sur 23 Sur 0 -- -- 29
2020-05-24 11:00:00 19.2 13 Sur 22 Sur 0 -- -- 31
2020-05-24 10:00:00 17.7 9 Sur 21 Sur 0 -- -- 34
2020-05-24 09:00:00 16.9 11 Sur 28 Sur 0 -- -- 38
2020-05-24 08:00:00 15.1 18 Sur 28 Sur 0 -- -- 45
2020-05-24 07:00:00 14.7 12 Sur 16 Sudeste 0 -- -- 38
2020-05-24 06:00:00 15.8 8 Sur 10 Sur 0 -- -- 37
2020-05-24 05:00:00 17.6 6 Sudeste 15 Sudeste 0 -- -- 31
2020-05-24 04:00:00 17.4 5 Sudeste 12 Este 0 -- -- 37
2020-05-24 03:00:00 17.8 6 Este 10 Sudeste 0 -- -- 33
2020-05-24 02:00:00 18.2 5 Sudeste 10 Sudeste 0 -- -- 35
2020-05-24 01:00:00 18.1 6 Sudeste 14 Sudeste 0 -- -- 38
2020-05-24 00:00:00 17.9 6 Sudeste 15 Sur 0 -- -- 37
2020-05-23 23:00:00 17.6 5 Sudeste 12 Sudeste 0 -- -- 38
2020-05-23 22:00:00 18 4 Sur 8 Sudeste 0 -- -- 40
2020-05-23 21:00:00 21.1 0 Calma 6 Sudoeste 0 -- -- 35
2020-05-23 20:00:00 22 4 Sudoeste 15 Sudoeste 0 -- -- 33
2020-05-23 19:00:00 24.1 8 Sudoeste 19 Oeste 0 -- -- 30
2020-05-23 18:00:00 24 7 Oeste 28 Sudoeste 0 -- -- 30
2020-05-23 17:00:00 24.4 12 Noroeste 25 Oeste 0 -- -- 35
2020-05-23 16:00:00 24.2 12 Noroeste 25 Noroeste 0 -- -- 32
2020-05-23 15:00:00 23.6 13 Oeste 31 Noroeste 0 -- -- 35
2020-05-23 14:00:00 23.8 19 Noroeste 28 Noroeste 0 -- -- 32
2020-05-23 13:00:00 23.7 16 Noroeste 27 Noroeste 0 -- -- 33
2020-05-23 12:00:00 21.8 10 Oeste 16 Oeste 0 -- -- 33
2020-05-23 11:00:00 20.4 7 Oeste 14 Oeste 0 -- -- 36
2020-05-23 10:00:00 20.1 7 Oeste 10 Oeste 0 -- -- 34
2020-05-23 09:00:00 19.8 0 Calma 3 Norte 0 -- -- 30
2020-05-23 08:00:00 17.9 0 Calma 4 Este 0 -- -- 30
2020-05-23 07:00:00 17.6 2 Este 5 Este 0 -- -- 30
2020-05-23 06:00:00 16.9 5 Nordeste 8 Nordeste 0 -- -- 31
2020-05-23 05:00:00 17 4 Nordeste 7 Este 0 -- -- 31
2020-05-23 04:00:00 17.1 3 Nordeste 8 Nordeste 0 -- -- 30
2020-05-23 03:00:00 17.1 4 Nordeste 6 Nordeste 0 -- -- 30
2020-05-23 02:00:00 17 5 Nordeste 9 Nordeste 0 -- -- 32
2020-05-23 01:00:00 16.6 6 Nordeste 9 Nordeste 0 -- -- 35
2020-05-23 00:00:00 17.4 3 Norte 7 Nordeste 0 -- -- 36
2020-05-22 23:00:00 17.5 5 Nordeste 8 Sudeste 0 -- -- 38
2020-05-22 22:00:00 18.7 5 Este 8 Sudeste 0 -- -- 36
2020-05-22 21:00:00 19.5 7 Norte 16 Noroeste 0 -- -- 35
2020-05-22 20:00:00 24.3 13 Noroeste 25 Noroeste 0 -- -- 29
2020-05-22 19:00:00 25 16 Noroeste 25 Noroeste 0 -- -- 27
2020-05-22 18:00:00 24.9 19 Noroeste 32 Oeste 0 -- -- 28
2020-05-22 17:00:00 25.3 17 Noroeste 29 Noroeste 0 -- -- 30
2020-05-22 16:00:00 24.3 21 Noroeste 32 Noroeste 0 -- -- 29
2020-05-22 15:00:00 25 22 Noroeste 32 Noroeste 0 -- -- 28
2020-05-22 14:00:00 25.7 22 Noroeste 29 Noroeste 0 -- -- 25
2020-05-22 13:00:00 25.6 18 Noroeste 29 Norte 0 -- -- 27
2020-05-22 12:00:00 22.8 16 Oeste 23 Oeste 0 -- -- 34
2020-05-22 11:00:00 22.2 9 Noroeste 17 Sudoeste 0 -- -- 38
2020-05-22 10:00:00 21.1 5 Oeste 9 Oeste 0 -- -- 40
2020-05-22 09:00:00 20.4 4 Sur 10 Sudeste 0 -- -- 41
2020-05-22 08:00:00 18.6 6 Sudeste 12 Sudeste 0 -- -- 42
2020-05-22 07:00:00 18.2 6 Este 9 Este 0 -- -- 40
2020-05-22 06:00:00 18 5 Sudeste 10 Nordeste 0 -- -- 41
2020-05-22 05:00:00 17.7 7 Este 10 Este 0 -- -- 44
2020-05-22 04:00:00 17.8 3 Este 7 Este 0 -- -- 41
2020-05-22 03:00:00 17.9 2 Norte 8 Nordeste 0 -- -- 40
2020-05-22 02:00:00 17.7 5 Este 18 Norte 0 -- -- 41
2020-05-22 01:00:00 17.1 9 Nordeste 15 Norte 0 -- -- 39
2020-05-22 00:00:00 17.5 13 Norte 17 Norte 0 -- -- 34
2020-05-21 23:00:00 17.7 14 Norte 18 Norte 0 -- -- 38
2020-05-21 22:00:00 17.3 12 Norte 15 Norte 0 -- -- 41
2020-05-21 21:00:00 17.8 9 Norte 18 Norte 0 -- -- 42
2020-05-21 20:00:00 20.7 17 Noroeste 30 Noroeste 0 -- -- 35
2020-05-21 19:00:00 23.3 22 Noroeste 36 Noroeste 0 -- -- 30
2020-05-21 18:00:00 23.5 21 Noroeste 34 Noroeste 0 -- -- 33
2020-05-21 17:00:00 23.7 23 Noroeste 40 Noroeste 0 -- -- 32
2020-05-21 16:00:00 23.8 24 Noroeste 38 Noroeste 0 -- -- 33
2020-05-21 15:00:00 23.9 22 Noroeste 35 Norte 0 -- -- 30
2020-05-21 14:00:00 23.5 22 Noroeste 35 Noroeste 0 -- -- 32
2020-05-21 13:00:00 23 18 Noroeste 32 Noroeste 0 -- -- 32
2020-05-21 12:00:00 22.4 17 Noroeste 27 Oeste 0 -- -- 31
2020-05-21 11:00:00 21 13 Noroeste 22 Noroeste 0 -- -- 34
2020-05-21 10:00:00 20.8 8 Noroeste 14 Noroeste 0 -- -- 37
2020-05-21 09:00:00 19.6 6 Noroeste 9 Noroeste 0 -- -- 35
2020-05-21 08:00:00 18.4 4 Sudeste 8 Este 0 -- -- 31
2020-05-21 07:00:00 17.6 6 Sudeste 7 Sudeste 0 -- -- 32
2020-05-21 06:00:00 16.6 6 Nordeste 10 Nordeste 0 -- -- 36
2020-05-21 05:00:00 17.3 5 Este 8 Este 0 -- -- 30
2020-05-21 04:00:00 17.3 0 Calma 8 Este 0 -- -- 31
2020-05-21 03:00:00 17.8 3 Sudeste 20 Nordeste 0 -- -- 32
2020-05-21 02:00:00 17.7 14 Nordeste 37 Nordeste 0 -- -- 32
2020-05-21 01:00:00 18.2 19 Nordeste 31 Nordeste 0 -- -- 34
2020-05-21 00:00:00 17.6 17 Nordeste 30 Nordeste 0 -- -- 36
2020-05-20 23:00:00 17.3 6 Este 10 Nordeste 0 -- -- 41
2020-05-20 22:00:00 16.7 4 Norte 17 Norte 0 -- -- 39
2020-05-20 21:00:00 17.2 12 Norte 24 Noroeste 0 -- -- 35
2020-05-20 20:00:00 22 19 Noroeste 30 Noroeste 0 -- -- 31
2020-05-20 19:00:00 23.1 22 Noroeste 41 Noroeste 0 -- -- 31
2020-05-20 18:00:00 23.5 28 Noroeste 45 Noroeste 0 -- -- 29
2020-05-20 17:00:00 23.6 30 Noroeste 46 Noroeste 0 -- -- 30
2020-05-20 16:00:00 22.6 26 Noroeste 45 Oeste 0 -- -- 33
2020-05-20 15:00:00 22.4 24 Noroeste 41 Noroeste 0 -- -- 34
2020-05-20 14:00:00 22.3 19 Noroeste 42 Oeste 0 -- -- 34
2020-05-20 13:00:00 22.5 18 Noroeste 34 Oeste 0 -- -- 36
2020-05-20 12:00:00 21.4 13 Noroeste 23 Noroeste 0 -- -- 36
2020-05-20 11:00:00 19.9 13 Oeste 22 Noroeste 0 -- -- 37
2020-05-20 10:00:00 19 6 Noroeste 13 Noroeste 0 -- -- 42
2020-05-20 09:00:00 17.5 5 Norte 10 Norte 0 -- -- 46
2020-05-20 08:00:00 15.1 8 Norte 13 Norte 0 -- -- 52
2020-05-20 07:00:00 14 6 Norte 10 Norte 0 -- -- 55
2020-05-20 06:00:00 14.9 4 Nordeste 9 Norte 0 -- -- 50
2020-05-20 05:00:00 15 5 Nordeste 10 Nordeste 0 -- -- 49
2020-05-20 04:00:00 14.4 9 Nordeste 11 Nordeste 0 -- -- 51
2020-05-20 03:00:00 15.3 5 Este 8 Sudeste 0 -- -- 48
2020-05-20 02:00:00 15.9 7 Este 10 Sudeste 0 -- -- 45
2020-05-20 01:00:00 15.9 6 Este 10 Este 0 -- -- 42
2020-05-20 00:00:00 16.2 8 Este 23 Nordeste 0 -- -- 39
2020-05-19 23:00:00 16.3 11 Este 24 Este 0 -- -- 40
2020-05-19 22:00:00 16.8 4 Nordeste 12 Sur 0 -- -- 46
2020-05-19 21:00:00 16.2 6 Este 30 Noroeste 0 -- -- 48
2020-05-19 20:00:00 19.8 24 Noroeste 35 Noroeste 0 -- -- 40
2020-05-19 19:00:00 20.7 30 Noroeste 41 Noroeste 0 -- -- 37
2020-05-19 18:00:00 21.4 30 Noroeste 44 Noroeste 0 -- -- 36
2020-05-19 17:00:00 21.7 28 Noroeste 44 Noroeste 0 -- -- 36
2020-05-19 16:00:00 20.4 29 Noroeste 45 Noroeste 0 -- -- 37
2020-05-19 15:00:00 20 28 Noroeste 43 Oeste 0 -- -- 41
2020-05-19 14:00:00 19.6 24 Noroeste 36 Noroeste 0 -- -- 39
2020-05-19 13:00:00 20.2 23 Noroeste 36 Oeste 0 -- -- 36
2020-05-19 12:00:00 19.7 16 Noroeste 25 Noroeste 0 -- -- 34
2020-05-19 11:00:00 18 11 Oeste 20 Oeste 0 -- -- 39
2020-05-19 10:00:00 16.9 8 Oeste 12 Oeste 0 -- -- 39
2020-05-19 09:00:00 16.1 0 Calma 3 Sudeste 0 -- -- 39
2020-05-19 08:00:00 14 0 Calma 5 Nordeste 0 -- -- 44
2020-05-19 07:00:00 14 5 Este 12 Este 0 -- -- 41
2020-05-19 06:00:00 13.5 8 Este 15 Este 0 -- -- 45
2020-05-19 05:00:00 14.3 9 Este 27 Nordeste 0 -- -- 41
2020-05-19 04:00:00 13.9 18 Nordeste 28 Nordeste 0 -- -- 55
2020-05-19 03:00:00 13.8 4 Noroeste 12 Sudoeste 0 -- -- 55
2020-05-19 02:00:00 13.2 4 Nordeste 19 Nordeste 0 -- -- 59
2020-05-19 01:00:00 14.1 9 Este 24 Sur 0 -- -- 55
2020-05-19 00:00:00 14.4 11 Sudeste 31 Este 0 -- -- 53
2020-05-18 23:00:00 14.1 10 Este 32 Noroeste 0 -- -- 53
2020-05-18 22:00:00 14 4 Sudoeste 24 Nordeste 0 -- -- 54
2020-05-18 21:00:00 14.4 13 Este 26 Nordeste 0 -- -- 57
2020-05-18 20:00:00 18.1 12 Noroeste 26 Noroeste 0 -- -- 54
2020-05-18 19:00:00 18.8 20 Noroeste 32 Noroeste 0 -- -- 51
2020-05-18 18:00:00 18 24 Noroeste 40 Noroeste 0 -- -- 53
2020-05-18 17:00:00 18.5 28 Noroeste 43 Noroeste 0 -- -- 55
2020-05-18 16:00:00 17.5 30 Noroeste 47 Noroeste 0 -- -- 58
2020-05-18 15:00:00 18.3 25 Noroeste 38 Noroeste 0 -- -- 57
2020-05-18 14:00:00 17.4 22 Noroeste 35 Noroeste 0 -- -- 59
2020-05-18 13:00:00 17 21 Noroeste 33 Noroeste 0 -- -- 58
2020-05-18 12:00:00 15 12 Oeste 20 Oeste 0 -- -- 57
2020-05-18 11:00:00 14.7 10 Oeste 15 Oeste 0 -- -- 58
2020-05-18 10:00:00 13.5 6 Oeste 17 Nordeste 0 -- -- 58
2020-05-18 09:00:00 12.7 9 Este 24 Este 0 -- -- 59
2020-05-18 08:00:00 10.4 12 Este 24 Este 0 -- -- 68
2020-05-18 07:00:00 9.6 14 Este 23 Este 0 -- -- 71
2020-05-18 06:00:00 9.1 3 Sudeste 16 Este 0 -- -- 71
2020-05-18 05:00:00 9.2 0 Calma 24 Nordeste 0 -- -- 70
2020-05-18 04:00:00 9.9 6 Este 32 Nordeste 0 -- -- 68
2020-05-18 03:00:00 8.4 3 Nordeste 13 Norte 0 -- -- 80
2020-05-18 02:00:00 8.1 5 Noroeste 11 Oeste 0 -- -- 80
2020-05-18 01:00:00 8.2 0 Calma 8 Noroeste 0 -- -- 81
2020-05-18 00:00:00 8.4 2 Norte 10 Noroeste 0 -- -- 80
2020-05-17 23:00:00 8.5 5 Este 9 Este 0 -- -- 81
2020-05-17 22:00:00 9 2 Este 21 Nordeste 0 -- -- 83
2020-05-17 21:00:00 9.4 4 Norte 15 Noroeste 0 -- -- 85
2020-05-17 20:00:00 12.6 12 Noroeste 17 Noroeste 0 -- -- 76
2020-05-17 19:00:00 11.6 5 Oeste 19 Norte 0 -- -- 84
2020-05-17 18:00:00 11.3 14 Noroeste 20 Noroeste 0 -- -- 85
2020-05-17 17:00:00 10.2 8 Oeste 17 Oeste 0.2 -- -- 88
2020-05-17 16:00:00 9 13 Noroeste 30 Noroeste 0.2 -- -- 95
2020-05-17 15:00:00 9.2 27 Noroeste 42 Oeste 0 -- -- 95
2020-05-17 14:00:00 10.6 13 Noroeste 26 Oeste 0.6 -- -- 87
2020-05-17 13:00:00 11.1 6 Noroeste 11 Noroeste 0 -- -- 78
2020-05-17 12:00:00 10.3 4 Sudoeste 10 Oeste 0 -- -- 79
2020-05-17 11:00:00 10 4 Oeste 9 Noroeste 0 -- -- 84
2020-05-17 10:00:00 9.1 4 Noroeste 7 Noroeste 0 -- -- 85
2020-05-17 09:00:00 8.8 0 Calma 5 Nordeste 0 -- -- 78
2020-05-17 08:00:00 8 3 Este 5 Este 0 -- -- 80
2020-05-17 07:00:00 7.2 5 Este 6 Este 0 -- -- 85
2020-05-17 06:00:00 7 3 Este 8 Este 0 -- -- 86
2020-05-17 05:00:00 7.1 2 Este 12 Norte 0 -- -- 87
2020-05-17 04:00:00 6.9 5 Norte 8 Norte 0 -- -- 90
2020-05-17 03:00:00 7 4 Noroeste 6 Noroeste 0 -- -- 91
2020-05-17 02:00:00 7.2 3 Nordeste 5 Nordeste 0 -- -- 89
2020-05-17 01:00:00 7.1 2 Sudoeste 5 Nordeste 0 -- -- 93
2020-05-17 00:00:00 7.1 3 Sudeste 9 Noroeste 0 -- -- 97
2020-05-16 23:00:00 7.2 9 Noroeste 12 Noroeste 0 -- -- 94
2020-05-16 22:00:00 7.5 3 Nordeste 8 Norte 0.6 -- -- 100
2020-05-16 21:00:00 7.4 2 Nordeste 9 Oeste 0.2 -- -- 100
2020-05-16 20:00:00 7.9 3 Noroeste 14 Noroeste 0.2 -- -- 100
2020-05-16 19:00:00 8 12 Noroeste 17 Noroeste 0.2 -- -- 99
2020-05-16 18:00:00 7.9 10 Oeste 19 Oeste 0 -- -- 99
2020-05-16 17:00:00 9.7 7 Noroeste 13 Oeste 0 -- -- 97
2020-05-16 16:00:00 9.1 2 Sur 12 Sudeste 1 -- -- 86
2020-05-16 15:00:00 8.7 9 Noroeste 15 Noroeste 0 -- -- 94
2020-05-16 14:00:00 8.8 0 Calma 10 Oeste 0.6 -- -- 87
2020-05-16 13:00:00 7.5 3 Sudeste 7 Sudeste 6.2 -- -- 85
2020-05-16 12:00:00 8.6 3 Oeste 11 Oeste 0 -- -- 87
2020-05-16 11:00:00 8.7 3 Sur 15 Sudeste 0 -- -- 83
2020-05-16 10:00:00 8.2 6 Sur 15 Sur 0 -- -- 91
2020-05-16 09:00:00 8.1 4 Sur 8 Sur 0 -- -- 83
2020-05-16 08:00:00 6.3 2 Sudeste 8 Sur 0 -- -- 93
2020-05-16 07:00:00 5.6 3 Sudeste 6 Sudeste 0 -- -- 92
2020-05-16 06:00:00 5.5 0 Calma 8 Sudeste 0 -- -- 97
2020-05-16 05:00:00 5.7 5 Sur 11 Sur 0 -- -- 98
2020-05-16 04:00:00 6 4 Sur 7 Sur 0 -- -- 97
2020-05-16 03:00:00 6 0 Calma 9 Sudeste 0 -- -- 99
2020-05-16 02:00:00 6.2 0 Calma 3 Sudeste 0 -- -- 97
2020-05-16 01:00:00 6.3 0 Calma 6 Noroeste 0 -- -- 98
2020-05-16 00:00:00 6.4 3 Noroeste 16 Sudeste 0 -- -- 95
2020-05-15 23:00:00 6.3 7 Sudeste 15 Sur 0 -- -- 96
2020-05-15 22:00:00 6.4 4 Sudeste 9 Sudeste 0 -- -- 96
2020-05-15 21:00:00 6.3 4 Sudeste 8 Sudeste 0.4 -- -- 92
2020-05-15 20:00:00 6.5 3 Norte 13 Norte 1 -- -- 90
2020-05-15 19:00:00 6.5 5 Norte 10 Norte 3 -- -- 93
2020-05-15 18:00:00 7.6 3 Sur 10 Sur 0.4 -- -- 95
2020-05-15 17:00:00 7.4 8 Sur 17 Sudoeste 0.2 -- -- 95
2020-05-15 16:00:00 9.2 6 Sudoeste 17 Sur 0 -- -- 85
2020-05-15 15:00:00 8.4 12 Sudoeste 19 Sudoeste 0 -- -- 85
2020-05-15 14:00:00 8.6 8 Sur 22 Sudoeste 0 -- -- 90
2020-05-15 13:00:00 10.2 12 Oeste 30 Oeste 0 -- -- 71
2020-05-15 12:00:00 11.6 11 Sudoeste 22 Sudoeste 0 -- -- 65
2020-05-15 11:00:00 8.8 4 Sudoeste 9 Sudoeste 0 -- -- 73
2020-05-15 10:00:00 7.3 3 Sudeste 8 Sudeste 0 -- -- 78
2020-05-15 09:00:00 5.7 4 Oeste 6 Noroeste 0 -- -- 85
2020-05-15 08:00:00 5.4 3 Sudeste 7 Sudeste 0 -- -- 79
2020-05-15 07:00:00 5.4 2 Este 6 Noroeste 0 -- -- 77
2020-05-15 06:00:00 5.6 2 Norte 6 Sudoeste 0 -- -- 75
2020-05-15 05:00:00 6.2 0 Calma 6 Este 0 -- -- 69
2020-05-15 04:00:00 5.6 4 Este 11 Nordeste 0 -- -- 73
2020-05-15 03:00:00 5.4 7 Norte 13 Nordeste 0 -- -- 77
2020-05-15 02:00:00 5 0 Calma 10 Noroeste 0 -- -- 81
2020-05-15 01:00:00 5.1 6 Noroeste 21 Noroeste 0 -- -- 82
2020-05-15 00:00:00 4.9 17 Noroeste 24 Noroeste 0 -- -- 87
2020-05-14 23:00:00 5.9 3 Norte 12 Norte 0 -- -- 78
2020-05-14 22:00:00 5.9 8 Norte 25 Noroeste 0 -- -- 75
2020-05-14 21:00:00 6.9 18 Noroeste 27 Noroeste 0 -- -- 75
2020-05-14 20:00:00 7.7 21 Noroeste 36 Noroeste 0 -- -- 73
2020-05-14 19:00:00 8.8 30 Noroeste 46 Noroeste 0 -- -- 68
2020-05-14 18:00:00 9.1 27 Noroeste 37 Oeste 0 -- -- 70
2020-05-14 17:00:00 11.4 22 Noroeste 48 Noroeste 0 -- -- 64
2020-05-14 16:00:00 7.8 33 Oeste 59 Oeste 0 -- -- 77
2020-05-14 15:00:00 8 39 Noroeste 68 Noroeste 0 -- -- 78
2020-05-14 14:00:00 7.3 39 Noroeste 64 Noroeste 0 -- -- 84
2020-05-14 13:00:00 7.7 32 Noroeste 62 Noroeste 0 -- -- 78
2020-05-14 12:00:00 7.1 27 Noroeste 46 Noroeste 0 -- -- 85
2020-05-14 11:00:00 6.1 30 Noroeste 43 Noroeste 0 -- -- 99
2020-05-14 10:00:00 4.6 31 Noroeste 46 Noroeste 0 -- -- 100
2020-05-14 09:00:00 4 26 Noroeste 35 Noroeste 0 -- -- 100
2020-05-14 08:00:00 3.9 21 Noroeste 46 Noroeste 0 -- -- 100
2020-05-14 07:00:00 4 32 Noroeste 51 Noroeste 0 -- -- 100
2020-05-14 06:00:00 4.7 23 Noroeste 36 Noroeste 0 -- -- 100
2020-05-14 05:00:00 4.9 18 Noroeste 30 Noroeste 0 -- -- 100
2020-05-14 04:00:00 5.2 24 Noroeste 33 Noroeste 0 -- -- 100
2020-05-14 03:00:00 5.5 23 Noroeste 50 Noroeste 0.2 -- -- 99
2020-05-14 02:00:00 6.1 21 Noroeste 33 Noroeste 0.8 -- -- 99
2020-05-14 01:00:00 6.3 19 Noroeste 28 Noroeste 1.2 -- -- 96
2020-05-14 00:00:00 7.6 11 Noroeste 22 Noroeste 0.2 -- -- 87
2020-05-13 23:00:00 8.4 18 Noroeste 28 Noroeste 0 -- -- 78
2020-05-13 22:00:00 8.8 22 Norte 40 Noroeste 0 -- -- 75
2020-05-13 21:00:00 10.4 7 Noroeste 29 Noroeste 0 -- -- 66
2020-05-13 20:00:00 11.9 21 Noroeste 33 Noroeste 0 -- -- 58
2020-05-13 19:00:00 12.5 20 Noroeste 47 Oeste 0 -- -- 55
2020-05-13 18:00:00 14.6 30 Noroeste 55 Noroeste 0 -- -- 45
2020-05-13 17:00:00 14.3 31 Noroeste 49 Oeste 0 -- -- 38
2020-05-13 16:00:00 14.4 24 Noroeste 44 Noroeste 0 -- -- 52
2020-05-13 15:00:00 13.5 24 Noroeste 44 Noroeste 0 -- -- 56
2020-05-13 14:00:00 13.7 24 Noroeste 39 Noroeste 0 -- -- 51
2020-05-13 13:00:00 12 18 Oeste 35 Oeste 0 -- -- 61
2020-05-13 12:00:00 11.7 13 Noroeste 25 Oeste 0 -- -- 61
2020-05-13 11:00:00 9.8 11 Noroeste 19 Noroeste 0 -- -- 68
2020-05-13 10:00:00 8.5 10 Noroeste 21 Noroeste 0 -- -- 65
2020-05-13 09:00:00 6.5 14 Noroeste 19 Noroeste 0 -- -- 75
2020-05-13 08:00:00 3.6 14 Noroeste 18 Noroeste 0 -- -- 85
2020-05-13 07:00:00 3.8 3 Norte 11 Noroeste 0 -- -- 77
2020-05-13 06:00:00 3.5 9 Norte 21 Noroeste 0 -- -- 83
2020-05-13 05:00:00 3.9 15 Norte 23 Norte 0 -- -- 84
2020-05-13 04:00:00 4.3 4 Sudeste 10 Este 0 -- -- 68
2020-05-13 03:00:00 3.9 4 Este 14 Noroeste 0 -- -- 80
2020-05-13 02:00:00 5.4 14 Noroeste 24 Norte 0 -- -- 69
2020-05-13 01:00:00 4.3 14 Norte 30 Noroeste 0 -- -- 88
2020-05-13 00:00:00 3.8 12 Noroeste 21 Noroeste 0 -- -- 95
2020-05-12 23:00:00 3.9 7 Este 13 Este 0 -- -- 97
2020-05-12 22:00:00 4.4 14 Noroeste 22 Noroeste 0 -- -- 94
2020-05-12 21:00:00 5.9 12 Noroeste 47 Noroeste 0 -- -- 83
2020-05-12 20:00:00 8.9 36 Noroeste 55 Noroeste 0 -- -- 67
2020-05-12 19:00:00 8.9 28 Noroeste 44 Noroeste 0 -- -- 85
2020-05-12 18:00:00 9.5 34 Noroeste 49 Noroeste 0 -- -- 76
2020-05-12 17:00:00 11.3 21 Noroeste 30 Noroeste 0 -- -- 76
2020-05-12 16:00:00 10 20 Noroeste 29 Noroeste 0 -- -- 86
2020-05-12 15:00:00 7 4 Este 32 Noroeste 1.2 -- -- 100
2020-05-12 14:00:00 6 16 Noroeste 26 Noroeste 3.2 -- -- 100
2020-05-12 13:00:00 6.5 7 Norte 18 Oeste 4 -- -- 99
2020-05-12 12:00:00 7.8 5 Sur 21 Sur 0.6 -- -- 94
2020-05-12 11:00:00 7 4 Sudoeste 19 Sur 0.2 -- -- 95
2020-05-12 10:00:00 8.9 7 Sudeste 16 Sudeste 0 -- -- 76
2020-05-12 09:00:00 8.7 5 Sudeste 12 Este 0.2 -- -- 71
2020-05-12 08:00:00 9.6 4 Noroeste 10 Sur 0 -- -- 56
2020-05-12 07:00:00 9.7 6 Sur 14 Sur 0 -- -- 53
2020-05-12 06:00:00 10.2 10 Sur 19 Sur 0 -- -- 50
2020-05-12 05:00:00 10.2 8 Este 42 Nordeste 0 -- -- 51
2020-05-12 04:00:00 10 24 Norte 38 Norte 0 -- -- 53
2020-05-12 03:00:00 10.9 0 Calma 8 Nordeste 0 -- -- 64
2020-05-12 02:00:00 10.7 4 Sudoeste 13 Sur 0 -- -- 64
2020-05-12 01:00:00 10.6 6 Sudeste 13 Sudeste 0 -- -- 55
2020-05-12 00:00:00 11.4 6 Sudeste 12 Este 0 -- -- 62
2020-05-11 23:00:00 11.3 6 Este 12 Este 0 -- -- 72
2020-05-11 22:00:00 10.5 2 Norte 11 Noroeste 0 -- -- 79
2020-05-11 21:00:00 11.7 6 Noroeste 13 Noroeste 0 -- -- 73
2020-05-11 20:00:00 14.8 9 Noroeste 22 Noroeste 0 -- -- 65
2020-05-11 19:00:00 15.9 15 Noroeste 33 Noroeste 0 -- -- 62
2020-05-11 18:00:00 16 23 Noroeste 42 Noroeste 0 -- -- 62
2020-05-11 17:00:00 16.3 22 Noroeste 38 Noroeste 0 -- -- 60
2020-05-11 16:00:00 14.5 21 Noroeste 45 Noroeste 0 -- -- 68
2020-05-11 15:00:00 15.6 27 Noroeste 44 Noroeste 0 -- -- 64
2020-05-11 14:00:00 15.5 28 Noroeste 46 Noroeste 0 -- -- 59
2020-05-11 13:00:00 15 28 Noroeste 45 Noroeste 0 -- -- 56
2020-05-11 12:00:00 13.7 19 Noroeste 38 Noroeste 0 -- -- 61
2020-05-11 11:00:00 11.6 18 Noroeste 26 Noroeste 0 -- -- 62
2020-05-11 10:00:00 9.9 14 Noroeste 22 Norte 0 -- -- 67
2020-05-11 09:00:00 8.4 9 Oeste 13 Oeste 0 -- -- 73
2020-05-11 08:00:00 7.4 5 Sudeste 9 Sudeste 0 -- -- 68
2020-05-11 07:00:00 6.7 3 Sur 8 Sudoeste 0 -- -- 73
2020-05-11 06:00:00 6.5 3 Sur 8 Sudeste 0 -- -- 77
2020-05-11 05:00:00 5.6 4 Noroeste 9 Este 0 -- -- 89
2020-05-11 04:00:00 5.8 0 Calma 6 Sudeste 0 -- -- 92
2020-05-11 03:00:00 6.3 0 Calma 8 Sudeste 0 -- -- 88
2020-05-11 02:00:00 6.3 2 Nordeste 10 Noroeste 0 -- -- 91
2020-05-11 01:00:00 5.9 6 Nordeste 13 Noroeste 0 -- -- 92
2020-05-11 00:00:00 6.3 12 Noroeste 17 Noroeste 0 -- -- 96
2020-05-10 23:00:00 7 6 Nordeste 14 Noroeste 0 -- -- 94
2020-05-10 22:00:00 7.4 14 Noroeste 22 Noroeste 0 -- -- 94
2020-05-10 21:00:00 7.9 16 Noroeste 33 Noroeste 0 -- -- 91
2020-05-10 20:00:00 9 22 Noroeste 37 Noroeste 0 -- -- 79
2020-05-10 19:00:00 9.3 21 Noroeste 27 Noroeste 0.2 -- -- 74
2020-05-10 18:00:00 8.4 26 Noroeste 58 Noroeste 0 -- -- 88
2020-05-10 17:00:00 11.3 18 Oeste 36 Noroeste 0 -- -- 57
2020-05-10 16:00:00 14.3 28 Noroeste 46 Noroeste 0 -- -- 55
2020-05-10 15:00:00 12.6 24 Noroeste 34 Noroeste 0 -- -- 57
2020-05-10 14:00:00 12 17 Noroeste 35 Noroeste 0 -- -- 56
2020-05-10 13:00:00 11.1 20 Noroeste 35 Oeste 0 -- -- 60
2020-05-10 12:00:00 10.6 18 Noroeste 35 Noroeste 0 -- -- 63
2020-05-10 11:00:00 11.8 20 Noroeste 32 Noroeste 0 -- -- 60
2020-05-10 10:00:00 8.6 13 Noroeste 26 Oeste 0 -- -- 77
2020-05-10 09:00:00 6.9 16 Noroeste 27 Norte 0 -- -- 85
2020-05-10 08:00:00 6.4 21 Noroeste 31 Noroeste 0 -- -- 86
2020-05-10 07:00:00 6.3 24 Norte 33 Norte 0 -- -- 86
2020-05-10 06:00:00 6.5 17 Noroeste 33 Norte 0 -- -- 91
2020-05-10 05:00:00 8 23 Norte 36 Noroeste 0 -- -- 90
2020-05-10 04:00:00 8.5 20 Norte 35 Norte 0 -- -- 87
2020-05-10 03:00:00 8.7 23 Noroeste 34 Noroeste 0 -- -- 82
2020-05-10 02:00:00 9.2 22 Norte 28 Norte 0 -- -- 77
2020-05-10 01:00:00 9.4 18 Norte 26 Norte 0 -- -- 74
2020-05-10 00:00:00 9.5 21 Norte 28 Noroeste 0 -- -- 76
2020-05-09 23:00:00 9.3 17 Noroeste 24 Noroeste 0 -- -- 77
2020-05-09 22:00:00 10.6 17 Noroeste 30 Noroeste 0 -- -- 65
2020-05-09 21:00:00 11.9 18 Norte 29 Noroeste 0 -- -- 44
2020-05-09 20:00:00 16.6 17 Noroeste 30 Noroeste 0 -- -- 31
2020-05-09 19:00:00 17 25 Noroeste 38 Noroeste 0 -- -- 25
2020-05-09 18:00:00 18 23 Noroeste 35 Noroeste 0 -- -- 34
2020-05-09 17:00:00 17.6 22 Oeste 38 Oeste 0 -- -- 33
2020-05-09 16:00:00 19.4 25 Noroeste 41 Norte 0 -- -- 42
2020-05-09 15:00:00 18 19 Noroeste 36 Noroeste 0 -- -- 49
2020-05-09 14:00:00 18.3 21 Noroeste 38 Noroeste 0 -- -- 47
2020-05-09 13:00:00 18 20 Noroeste 32 Noroeste 0 -- -- 46
2020-05-09 12:00:00 18.1 21 Noroeste 30 Noroeste 0 -- -- 48
2020-05-09 11:00:00 16.3 11 Noroeste 29 Norte 0 -- -- 52
2020-05-09 10:00:00 16.2 12 Noroeste 22 Noroeste 0 -- -- 52
2020-05-09 09:00:00 13.8 11 Noroeste 14 Noroeste 0 -- -- 62
2020-05-09 08:00:00 12.1 7 Norte 23 Norte 0 -- -- 66
2020-05-09 07:00:00 12.9 20 Norte 27 Nordeste 0 -- -- 61
2020-05-09 06:00:00 11.1 6 Este 12 Norte 0 -- -- 69
2020-05-09 05:00:00 9.9 9 Norte 19 Noroeste 0 -- -- 94
2020-05-09 04:00:00 12.8 8 Noroeste 19 Norte 0 -- -- 62
2020-05-09 03:00:00 13.7 15 Norte 21 Norte 0 -- -- 58
2020-05-09 02:00:00 13 11 Norte 18 Norte 0 -- -- 79
2020-05-09 01:00:00 10.9 0 Calma 26 Noroeste 0 -- -- 100
2020-05-09 00:00:00 11.4 15 Norte 24 Norte 0 -- -- 99
2020-05-08 23:00:00 11.9 7 Sudeste 21 Noroeste 0 -- -- 98
2020-05-08 22:00:00 12.2 9 Noroeste 15 Sudeste 0 -- -- 95
2020-05-08 21:00:00 13.5 4 Sudeste 16 Noroeste 0 -- -- 90
2020-05-08 20:00:00 16.5 10 Oeste 17 Oeste 0 -- -- 79
2020-05-08 19:00:00 19.5 13 Oeste 21 Noroeste 0 -- -- 59
2020-05-08 18:00:00 21.2 9 Sudoeste 19 Noroeste 0 -- -- 53
2020-05-08 17:00:00 22.7 13 Noroeste 20 Oeste 0 -- -- 43
2020-05-08 16:00:00 21.6 14 Noroeste 22 Noroeste 0 -- -- 52
2020-05-08 15:00:00 22 14 Noroeste 23 Noroeste 0 -- -- 48
2020-05-08 14:00:00 20.6 15 Noroeste 26 Noroeste 0 -- -- 44
2020-05-08 13:00:00 20.1 13 Oeste 22 Noroeste 0 -- -- 38
2020-05-08 12:00:00 19.7 9 Noroeste 14 Noroeste 0 -- -- 35
2020-05-08 11:00:00 18.7 6 Sur 15 Sur 0 -- -- 32
2020-05-08 10:00:00 17 8 Sudeste 15 Sur 0 -- -- 35
2020-05-08 09:00:00 14.8 8 Noroeste 13 Sudeste 0 -- -- 34
2020-05-08 08:00:00 14.7 9 Sudeste 14 Sudeste 0 -- -- 37
2020-05-08 07:00:00 13.7 5 Sur 11 Sur 0 -- -- 35
2020-05-08 06:00:00 14.5 7 Sudeste 17 Sudeste 0 -- -- 36
2020-05-08 05:00:00 14.1 12 Sudeste 17 Sudeste 0 -- -- 38
2020-05-08 04:00:00 12.7 10 Sudeste 18 Sudeste 0 -- -- 41
2020-05-08 03:00:00 12.6 6 Sudeste 14 Sudeste 0 -- -- 40
2020-05-08 02:00:00 10.7 5 Sudeste 22 Sur 0 -- -- 54
2020-05-08 01:00:00 12.5 8 Sudeste 22 Sudeste 0 -- -- 47
2020-05-08 00:00:00 11.6 8 Sur 23 Sur 0 -- -- 51
2020-05-07 23:00:00 11.1 5 Sudeste 20 Sudeste 0 -- -- 53
2020-05-07 22:00:00 12.7 8 Sur 33 Sur 0 -- -- 44
2020-05-07 21:00:00 13 12 Sudeste 30 Sur 0 -- -- 50
2020-05-07 20:00:00 16.4 8 Sudeste 34 Sur 0 -- -- 42
2020-05-07 19:00:00 17.8 11 Sudeste 32 Sur 0 -- -- 40
2020-05-07 18:00:00 17.9 14 Sudeste 33 Sudeste 0 -- -- 37
2020-05-07 17:00:00 19.3 10 Sur 33 Sur 0 -- -- 35
2020-05-07 16:00:00 19.4 15 Sur 43 Sur 0 -- -- 34
2020-05-07 15:00:00 19.5 15 Sur 39 Sur 0 -- -- 38
2020-05-07 14:00:00 18.7 15 Sudeste 38 Sur 0 -- -- 48
2020-05-07 13:00:00 18.9 13 Sur 33 Sur 0 -- -- 31
2020-05-07 12:00:00 18.4 14 Sur 29 Sur 0 -- -- 44
2020-05-07 11:00:00 18.1 14 Sur 33 Sudeste 0 -- -- 40
2020-05-07 10:00:00 16.3 7 Sur 23 Sudeste 0 -- -- 48
2020-05-07 09:00:00 16.9 7 Sur 31 Sudeste 0 -- -- 39
2020-05-07 08:00:00 15.6 12 Sudeste 30 Sudeste 0 -- -- 32
2020-05-07 07:00:00 15.4 14 Sudeste 28 Sur 0 -- -- 30
2020-05-07 06:00:00 15.9 11 Sudeste 23 Sudeste 0 -- -- 34
2020-05-07 05:00:00 16.2 9 Sudeste 25 Sudeste 0 -- -- 31
2020-05-07 04:00:00 15.6 11 Sudeste 29 Sudeste 0 -- -- 38
2020-05-07 03:00:00 15.1 8 Sudeste 24 Sudeste 0 -- -- 52
2020-05-07 02:00:00 16.3 13 Sudeste 30 Sur 0 -- -- 52
2020-05-07 01:00:00 14 12 Sur 20 Sudeste 0 -- -- 75
2020-05-07 00:00:00 13.6 12 Sur 16 Sur 0 -- -- 74
2020-05-06 23:00:00 14.1 4 Sur 6 Sur 0 -- -- 74
2020-05-06 22:00:00 14.9 4 Sur 10 Sudeste 0 -- -- 71
2020-05-06 21:00:00 16.9 4 Sur 6 Sudoeste 0 -- -- 60
2020-05-06 20:00:00 19 6 Sudoeste 15 Oeste 0 -- -- 54
2020-05-06 19:00:00 21.7 8 Oeste 20 Noroeste 0 -- -- 41
2020-05-06 18:00:00 23.1 10 Noroeste 21 Noroeste 0 -- -- 35
2020-05-06 17:00:00 22.4 14 Oeste 22 Oeste 0 -- -- 32
2020-05-06 16:00:00 24.2 13 Noroeste 26 Noroeste 0 -- -- 31
2020-05-06 15:00:00 22.3 17 Noroeste 29 Noroeste 0 -- -- 33
2020-05-06 14:00:00 24.1 16 Noroeste 28 Noroeste 0 -- -- 26
2020-05-06 13:00:00 23.7 11 Noroeste 22 Noroeste 0 -- -- 22
2020-05-06 12:00:00 21.4 12 Noroeste 18 Norte 0 -- -- 21
2020-05-06 11:00:00 20.7 12 Noroeste 19 Noroeste 0 -- -- 16
2020-05-06 10:00:00 18.6 10 Noroeste 15 Noroeste 0 -- -- 18
2020-05-06 09:00:00 16.6 7 Norte 12 Norte 0 -- -- 29
2020-05-06 08:00:00 15.4 10 Norte 15 Norte 0 -- -- 14
2020-05-06 07:00:00 14.4 11 Norte 15 Norte 0 -- -- 20
2020-05-06 06:00:00 14.2 11 Norte 14 Norte 0 -- -- 33
2020-05-06 05:00:00 15.2 8 Norte 18 Norte 0 -- -- 31
2020-05-06 04:00:00 15.4 11 Norte 17 Norte 0 -- -- 28
2020-05-06 03:00:00 15.3 12 Norte 22 Norte 0 -- -- 48
2020-05-06 02:00:00 16.2 13 Norte 18 Norte 0 -- -- 41
2020-05-06 01:00:00 16.3 12 Norte 17 Noroeste 0 -- -- 42
2020-05-06 00:00:00 17.5 13 Norte 17 Norte 0 -- -- 34
2020-05-05 23:00:00 17.9 15 Norte 22 Norte 0 -- -- 34
2020-05-05 22:00:00 17.6 10 Norte 13 Norte 0 -- -- 44
2020-05-05 21:00:00 18.6 10 Norte 19 Noroeste 0 -- -- 45
2020-05-05 20:00:00 23.3 15 Noroeste 25 Noroeste 0 -- -- 37
2020-05-05 19:00:00 22.7 18 Noroeste 28 Noroeste 0 -- -- 38
2020-05-05 18:00:00 25.1 17 Noroeste 30 Noroeste 0 -- -- 34
2020-05-05 17:00:00 23.5 21 Noroeste 37 Noroeste 0 -- -- 36
2020-05-05 16:00:00 24.2 22 Noroeste 35 Oeste 0 -- -- 35
2020-05-05 15:00:00 24.3 20 Noroeste 35 Noroeste 0 -- -- 34
2020-05-05 14:00:00 24 19 Noroeste 32 Norte 0 -- -- 30
2020-05-05 13:00:00 23.9 15 Noroeste 30 Noroeste 0.6 -- -- 27
2020-05-05 12:00:00 22.6 14 Noroeste 24 Noroeste 0 -- -- 28
2020-05-05 11:00:00 21.9 6 Noroeste 13 Noroeste 0 -- -- 26
2020-05-05 10:00:00 20.7 7 Noroeste 14 Noroeste 0 -- -- 29
2020-05-05 09:00:00 19.2 5 Noroeste 7 Norte 0 -- -- 34
2020-05-05 08:00:00 17.8 3 Nordeste 13 Norte 0 -- -- 27
2020-05-05 07:00:00 17.7 12 Norte 19 Norte 0 -- -- 26
2020-05-05 06:00:00 17.1 11 Norte 15 Norte 0 -- -- 30
2020-05-05 05:00:00 16.7 5 Norte 9 Noroeste 0 -- -- 39
2020-05-05 04:00:00 17.5 5 Norte 9 Noroeste 0 -- -- 33
2020-05-05 03:00:00 18.4 3 Nordeste 15 Nordeste 0 -- -- 33
2020-05-05 02:00:00 17.4 8 Nordeste 15 Noroeste 0 -- -- 41
2020-05-05 01:00:00 17.6 7 Norte 10 Noroeste 0 -- -- 37
2020-05-05 00:00:00 19.1 4 Nordeste 18 Norte 0 -- -- 30